sensor_id;sensor_type;location;lat;lon;timestamp;pressure;altitude;pressure_sealevel;temperature;humidity
70370;BME280;57790;51.356;-2.906;2023-07-13T00:01:36;101592.66;;;20.31;100.00
70370;BME280;57790;51.356;-2.906;2023-07-13T00:04:38;101592.25;;;20.27;100.00
70370;BME280;57790;51.356;-2.906;2023-07-13T00:07:39;101591.59;;;20.25;100.00
70370;BME280;57790;51.356;-2.906;2023-07-13T00:10:40;101588.72;;;20.27;100.00
70370;BME280;57790;51.356;-2.906;2023-07-13T00:13:42;101592.00;;;20.22;100.00
70370;BME280;57790;51.356;-2.906;2023-07-13T00:16:43;101593.47;;;20.18;100.00
70370;BME280;57790;51.356;-2.906;2023-07-13T00:19:43;101588.50;;;20.21;100.00
70370;BME280;57790;51.356;-2.906;2023-07-13T00:22:44;101585.81;;;20.15;100.00
70370;BME280;57790;51.356;-2.906;2023-07-13T00:25:44;101588.69;;;20.20;100.00
70370;BME280;57790;51.356;-2.906;2023-07-13T00:28:45;101582.69;;;20.18;100.00
70370;BME280;57790;51.356;-2.906;2023-07-13T00:31:45;101582.06;;;20.16;100.00
70370;BME280;57790;51.356;-2.906;2023-07-13T00:34:46;101581.22;;;20.09;100.00
70370;BME280;57790;51.356;-2.906;2023-07-13T00:37:47;101584.56;;;20.11;100.00
70370;BME280;57790;51.356;-2.906;2023-07-13T00:40:47;101584.31;;;20.06;100.00
70370;BME280;57790;51.356;-2.906;2023-07-13T00:43:48;101578.53;;;20.09;100.00
70370;BME280;57790;51.356;-2.906;2023-07-13T00:46:49;101588.25;;;20.10;100.00
70370;BME280;57790;51.356;-2.906;2023-07-13T00:49:49;101579.34;;;20.09;100.00
70370;BME280;57790;51.356;-2.906;2023-07-13T00:52:53;101582.47;;;20.00;100.00
70370;BME280;57790;51.356;-2.906;2023-07-13T00:55:56;101583.72;;;20.04;100.00
70370;BME280;57790;51.356;-2.906;2023-07-13T00:58:57;101580.38;;;19.95;100.00
70370;BME280;57790;51.356;-2.906;2023-07-13T01:01:59;101584.28;;;19.92;100.00
70370;BME280;57790;51.356;-2.906;2023-07-13T01:05:00;101587.84;;;20.00;100.00
70370;BME280;57790;51.356;-2.906;2023-07-13T01:08:03;101587.59;;;19.95;100.00
70370;BME280;57790;51.356;-2.906;2023-07-13T01:11:05;101582.84;;;19.90;100.00
70370;BME280;57790;51.356;-2.906;2023-07-13T01:14:06;101583.06;;;19.88;100.00
70370;BME280;57790;51.356;-2.906;2023-07-13T01:17:12;101573.72;;;19.84;100.00
70370;BME280;57790;51.356;-2.906;2023-07-13T01:20:12;101573.13;;;19.82;100.00
70370;BME280;57790;51.356;-2.906;2023-07-13T01:23:12;101578.72;;;19.87;100.00
70370;BME280;57790;51.356;-2.906;2023-07-13T01:26:13;101581.34;;;19.81;100.00
70370;BME280;57790;51.356;-2.906;2023-07-13T01:29:13;101586.13;;;19.79;100.00
70370;BME280;57790;51.356;-2.906;2023-07-13T01:32:20;101574.53;;;19.78;100.00
70370;BME280;57790;51.356;-2.906;2023-07-13T01:35:24;101570.59;;;19.81;100.00
70370;BME280;57790;51.356;-2.906;2023-07-13T01:38:27;101581.78;;;19.78;100.00
70370;BME280;57790;51.356;-2.906;2023-07-13T01:41:27;101574.94;;;19.75;100.00
70370;BME280;57790;51.356;-2.906;2023-07-13T01:44:28;101571.84;;;19.78;100.00
70370;BME280;57790;51.356;-2.906;2023-07-13T01:47:28;101575.81;;;19.82;100.00
70370;BME280;57790;51.356;-2.906;2023-07-13T01:50:31;101573.06;;;19.76;100.00
70370;BME280;57790;51.356;-2.906;2023-07-13T01:53:31;101587.34;;;19.76;100.00
70370;BME280;57790;51.356;-2.906;2023-07-13T01:56:31;101577.00;;;19.73;100.00
70370;BME280;57790;51.356;-2.906;2023-07-13T01:59:32;101567.91;;;19.74;100.00
70370;BME280;57790;51.356;-2.906;2023-07-13T02:02:33;101571.22;;;19.70;100.00
70370;BME280;57790;51.356;-2.906;2023-07-13T02:05:34;101563.34;;;19.68;100.00
70370;BME280;57790;51.356;-2.906;2023-07-13T02:08:34;101564.16;;;19.69;100.00
70370;BME280;57790;51.356;-2.906;2023-07-13T02:11:34;101562.09;;;19.71;100.00
70370;BME280;57790;51.356;-2.906;2023-07-13T02:14:35;101557.97;;;19.68;100.00
70370;BME280;57790;51.356;-2.906;2023-07-13T02:17:35;101566.25;;;19.73;100.00
70370;BME280;57790;51.356;-2.906;2023-07-13T02:20:36;101553.00;;;19.72;100.00
70370;BME280;57790;51.356;-2.906;2023-07-13T02:23:36;101562.50;;;19.68;100.00
70370;BME280;57790;51.356;-2.906;2023-07-13T02:26:37;101555.84;;;19.64;100.00
70370;BME280;57790;51.356;-2.906;2023-07-13T02:29:37;101559.78;;;19.61;100.00
70370;BME280;57790;51.356;-2.906;2023-07-13T02:32:38;101556.66;;;19.57;100.00
70370;BME280;57790;51.356;-2.906;2023-07-13T02:35:38;101549.84;;;19.55;100.00
70370;BME280;57790;51.356;-2.906;2023-07-13T02:38:38;101550.19;;;19.52;100.00
70370;BME280;57790;51.356;-2.906;2023-07-13T02:41:39;101548.31;;;19.52;100.00
70370;BME280;57790;51.356;-2.906;2023-07-13T02:44:39;101556.59;;;19.51;100.00
70370;BME280;57790;51.356;-2.906;2023-07-13T02:47:41;101542.53;;;19.49;100.00
70370;BME280;57790;51.356;-2.906;2023-07-13T02:50:42;101552.25;;;19.50;100.00
70370;BME280;57790;51.356;-2.906;2023-07-13T02:53:42;101548.53;;;19.51;100.00
70370;BME280;57790;51.356;-2.906;2023-07-13T02:56:42;101544.59;;;19.47;100.00
70370;BME280;57790;51.356;-2.906;2023-07-13T02:59:43;101534.88;;;19.46;100.00
70370;BME280;57790;51.356;-2.906;2023-07-13T03:02:44;101542.31;;;19.44;100.00
70370;BME280;57790;51.356;-2.906;2023-07-13T03:05:45;101541.28;;;19.45;100.00
70370;BME280;57790;51.356;-2.906;2023-07-13T03:08:50;101551.84;;;19.46;100.00
70370;BME280;57790;51.356;-2.906;2023-07-13T03:11:54;101557.00;;;19.48;100.00
70370;BME280;57790;51.356;-2.906;2023-07-13T03:14:55;101553.06;;;19.44;100.00
70370;BME280;57790;51.356;-2.906;2023-07-13T03:17:55;101556.38;;;19.39;100.00
70370;BME280;57790;51.356;-2.906;2023-07-13T03:20:56;101558.03;;;19.40;100.00
70370;BME280;57790;51.356;-2.906;2023-07-13T03:23:56;101554.06;;;19.36;100.00
70370;BME280;57790;51.356;-2.906;2023-07-13T03:26:57;101555.53;;;19.39;100.00
70370;BME280;57790;51.356;-2.906;2023-07-13T03:29:57;101556.53;;;19.38;100.00
70370;BME280;57790;51.356;-2.906;2023-07-13T03:32:57;101560.25;;;19.37;100.00
70370;BME280;57790;51.356;-2.906;2023-07-13T03:35:58;101555.50;;;19.32;100.00
70370;BME280;57790;51.356;-2.906;2023-07-13T03:39:00;101557.97;;;19.27;100.00
70370;BME280;57790;51.356;-2.906;2023-07-13T03:42:01;101555.28;;;19.27;100.00
70370;BME280;57790;51.356;-2.906;2023-07-13T03:45:02;101546.75;;;19.23;100.00
70370;BME280;57790;51.356;-2.906;2023-07-13T03:48:02;101556.94;;;19.28;100.00
70370;BME280;57790;51.356;-2.906;2023-07-13T03:51:03;101560.25;;;19.30;100.00
70370;BME280;57790;51.356;-2.906;2023-07-13T03:54:03;101559.63;;;19.28;100.00
70370;BME280;57790;51.356;-2.906;2023-07-13T03:57:04;101560.66;;;19.27;100.00
70370;BME280;57790;51.356;-2.906;2023-07-13T04:00:05;101565.56;;;19.23;100.00
70370;BME280;57790;51.356;-2.906;2023-07-13T04:03:06;101563.91;;;19.22;100.00
70370;BME280;57790;51.356;-2.906;2023-07-13T04:06:09;101567.44;;;19.23;100.00
70370;BME280;57790;51.356;-2.906;2023-07-13T04:09:15;101570.53;;;19.20;100.00
70370;BME280;57790;51.356;-2.906;2023-07-13T04:12:15;101571.56;;;19.19;100.00
70370;BME280;57790;51.356;-2.906;2023-07-13T04:15:15;101576.50;;;19.15;100.00
70370;BME280;57790;51.356;-2.906;2023-07-13T04:18:16;101575.88;;;19.13;100.00
70370;BME280;57790;51.356;-2.906;2023-07-13T04:21:16;101582.66;;;19.09;100.00
70370;BME280;57790;51.356;-2.906;2023-07-13T04:24:17;101574.44;;;19.11;100.00
70370;BME280;57790;51.356;-2.906;2023-07-13T04:27:17;101584.53;;;19.09;100.00
70370;BME280;57790;51.356;-2.906;2023-07-13T04:30:18;101573.59;;;19.10;100.00
70370;BME280;57790;51.356;-2.906;2023-07-13T04:33:18;101592.97;;;19.06;100.00
70370;BME280;57790;51.356;-2.906;2023-07-13T04:36:24;101589.88;;;19.02;100.00
70370;BME280;57790;51.356;-2.906;2023-07-13T04:39:27;101589.88;;;19.02;100.00
70370;BME280;57790;51.356;-2.906;2023-07-13T04:42:27;101588.22;;;19.01;100.00
70370;BME280;57790;51.356;-2.906;2023-07-13T04:45:27;101590.91;;;19.01;100.00
70370;BME280;57790;51.356;-2.906;2023-07-13T04:48:28;101596.47;;;18.99;100.00
70370;BME280;57790;51.356;-2.906;2023-07-13T04:51:28;101588.97;;;18.95;100.00
70370;BME280;57790;51.356;-2.906;2023-07-13T04:54:29;101591.88;;;18.93;100.00
70370;BME280;57790;51.356;-2.906;2023-07-13T04:57:29;101595.78;;;18.91;100.00
70370;BME280;57790;51.356;-2.906;2023-07-13T05:00:30;101593.50;;;18.88;100.00
70370;BME280;57790;51.356;-2.906;2023-07-13T05:03:31;101587.91;;;18.89;100.00
70370;BME280;57790;51.356;-2.906;2023-07-13T05:06:31;101596.38;;;18.86;100.00
70370;BME280;57790;51.356;-2.906;2023-07-13T05:09:32;101594.72;;;18.85;100.00
70370;BME280;57790;51.356;-2.906;2023-07-13T05:12:32;101596.56;;;18.85;100.00
70370;BME280;57790;51.356;-2.906;2023-07-13T05:15:33;101594.31;;;18.88;100.00
70370;BME280;57790;51.356;-2.906;2023-07-13T05:18:33;101597.63;;;18.90;100.00
70370;BME280;57790;51.356;-2.906;2023-07-13T05:21:34;101594.91;;;18.84;100.00
70370;BME280;57790;51.356;-2.906;2023-07-13T05:24:34;101609.19;;;18.84;100.00
70370;BME280;57790;51.356;-2.906;2023-07-13T05:27:35;101622.34;;;18.79;100.00
70370;BME280;57790;51.356;-2.906;2023-07-13T05:30:36;101616.41;;;18.84;100.00
70370;BME280;57790;51.356;-2.906;2023-07-13T05:33:36;101616.16;;;18.79;100.00
70370;BME280;57790;51.356;-2.906;2023-07-13T05:36:36;101616.34;;;18.77;100.00
70370;BME280;57790;51.356;-2.906;2023-07-13T05:39:37;101624.41;;;18.77;100.00
70370;BME280;57790;51.356;-2.906;2023-07-13T05:42:38;101632.47;;;18.77;100.00
70370;BME280;57790;51.356;-2.906;2023-07-13T05:45:38;101631.63;;;18.77;100.00
70370;BME280;57790;51.356;-2.906;2023-07-13T05:48:39;101631.44;;;18.78;100.00
70370;BME280;57790;51.356;-2.906;2023-07-13T05:51:39;101639.69;;;18.77;100.00
70370;BME280;57790;51.356;-2.906;2023-07-13T05:54:40;101637.44;;;18.80;100.00
70370;BME280;57790;51.356;-2.906;2023-07-13T05:57:40;101636.63;;;18.80;100.00
70370;BME280;57790;51.356;-2.906;2023-07-13T06:00:40;101637.63;;;18.79;100.00
70370;BME280;57790;51.356;-2.906;2023-07-13T06:03:41;101642.19;;;18.78;100.00
70370;BME280;57790;51.356;-2.906;2023-07-13T06:06:44;101645.34;;;18.82;100.00
70370;BME280;57790;51.356;-2.906;2023-07-13T06:09:45;101650.88;;;18.80;100.00
70370;BME280;57790;51.356;-2.906;2023-07-13T06:12:45;101650.88;;;18.80;100.00
70370;BME280;57790;51.356;-2.906;2023-07-13T06:15:49;101660.81;;;18.80;100.00
70370;BME280;57790;51.356;-2.906;2023-07-13T06:18:50;101653.75;;;18.79;100.00
70370;BME280;57790;51.356;-2.906;2023-07-13T06:21:50;101648.38;;;18.79;100.00
70370;BME280;57790;51.356;-2.906;2023-07-13T06:24:51;101654.59;;;18.79;100.00
70370;BME280;57790;51.356;-2.906;2023-07-13T06:27:52;101667.59;;;18.76;100.00
70370;BME280;57790;51.356;-2.906;2023-07-13T06:30:52;101670.66;;;18.72;100.00
70370;BME280;57790;51.356;-2.906;2023-07-13T06:33:53;101673.34;;;18.72;100.00
70370;BME280;57790;51.356;-2.906;2023-07-13T06:36:54;101672.72;;;18.70;100.00
70370;BME280;57790;51.356;-2.906;2023-07-13T06:39:55;101679.38;;;18.75;100.00
70370;BME280;57790;51.356;-2.906;2023-07-13T06:42:55;101684.53;;;18.76;100.00
70370;BME280;57790;51.356;-2.906;2023-07-13T06:45:56;101692.34;;;18.71;100.00
70370;BME280;57790;51.356;-2.906;2023-07-13T06:48:56;101697.16;;;18.76;100.00
70370;BME280;57790;51.356;-2.906;2023-07-13T06:51:56;101696.56;;;18.80;100.00
70370;BME280;57790;51.356;-2.906;2023-07-13T06:54:57;101688.50;;;18.80;100.00
70370;BME280;57790;51.356;-2.906;2023-07-13T06:57:57;101695.72;;;18.80;100.00
70370;BME280;57790;51.356;-2.906;2023-07-13T07:00:58;101696.41;;;18.82;100.00
70370;BME280;57790;51.356;-2.906;2023-07-13T07:03:58;101704.25;;;18.83;100.00
70370;BME280;57790;51.356;-2.906;2023-07-13T07:06:59;101687.50;;;18.81;100.00
70370;BME280;57790;51.356;-2.906;2023-07-13T07:09:59;101692.22;;;18.79;100.00
70370;BME280;57790;51.356;-2.906;2023-07-13T07:12:59;101690.75;;;18.77;100.00
70370;BME280;57790;51.356;-2.906;2023-07-13T07:16:00;101688.69;;;18.79;100.00
70370;BME280;57790;51.356;-2.906;2023-07-13T07:19:00;101685.81;;;18.80;100.00
70370;BME280;57790;51.356;-2.906;2023-07-13T07:22:01;101690.63;;;18.85;100.00
70370;BME280;57790;51.356;-2.906;2023-07-13T07:25:01;101681.53;;;18.86;100.00
70370;BME280;57790;51.356;-2.906;2023-07-13T07:28:02;101689.19;;;18.89;100.00
70370;BME280;57790;51.356;-2.906;2023-07-13T07:31:03;101690.88;;;18.90;100.00
70370;BME280;57790;51.356;-2.906;2023-07-13T07:34:03;101686.94;;;18.92;100.00
70370;BME280;57790;51.356;-2.906;2023-07-13T07:37:04;101685.72;;;18.95;100.00
70370;BME280;57790;51.356;-2.906;2023-07-13T07:40:05;101692.41;;;18.99;100.00
70370;BME280;57790;51.356;-2.906;2023-07-13T07:43:07;101698.00;;;19.04;100.00
70370;BME280;57790;51.356;-2.906;2023-07-13T07:46:08;101698.84;;;19.05;100.00
70370;BME280;57790;51.356;-2.906;2023-07-13T07:49:08;101711.06;;;19.07;100.00
70370;BME280;57790;51.356;-2.906;2023-07-13T07:52:09;101710.69;;;19.10;100.00
70370;BME280;57790;51.356;-2.906;2023-07-13T07:55:09;101716.06;;;19.10;100.00
70370;BME280;57790;51.356;-2.906;2023-07-13T07:58:10;101719.59;;;19.11;100.00
70370;BME280;57790;51.356;-2.906;2023-07-13T08:01:10;101723.94;;;19.12;100.00
70370;BME280;57790;51.356;-2.906;2023-07-13T08:04:11;101721.25;;;19.12;100.00
70370;BME280;57790;51.356;-2.906;2023-07-13T08:07:12;101718.34;;;19.13;100.00
70370;BME280;57790;51.356;-2.906;2023-07-13T08:10:12;101725.59;;;19.13;100.00
70370;BME280;57790;51.356;-2.906;2023-07-13T08:13:13;101733.47;;;19.14;100.00
70370;BME280;57790;51.356;-2.906;2023-07-13T08:16:13;101727.06;;;19.15;100.00
70370;BME280;57790;51.356;-2.906;2023-07-13T08:19:14;101725.19;;;19.16;100.00
70370;BME280;57790;51.356;-2.906;2023-07-13T08:22:14;101728.09;;;19.14;100.00
70370;BME280;57790;51.356;-2.906;2023-07-13T08:25:15;101722.91;;;19.13;100.00
70370;BME280;57790;51.356;-2.906;2023-07-13T08:28:16;101734.50;;;19.13;100.00
70370;BME280;57790;51.356;-2.906;2023-07-13T08:31:16;101727.47;;;19.12;100.00
70370;BME280;57790;51.356;-2.906;2023-07-13T08:34:16;101723.09;;;19.11;100.00
70370;BME280;57790;51.356;-2.906;2023-07-13T08:37:18;101730.13;;;19.12;100.00
70370;BME280;57790;51.356;-2.906;2023-07-13T08:40:20;101723.94;;;19.12;100.00
70370;BME280;57790;51.356;-2.906;2023-07-13T08:43:30;101721.25;;;19.12;100.00
70370;BME280;57790;51.356;-2.906;2023-07-13T08:46:35;101725.41;;;19.14;100.00
70370;BME280;57790;51.356;-2.906;2023-07-13T08:49:37;101719.19;;;19.14;100.00
70370;BME280;57790;51.356;-2.906;2023-07-13T08:52:39;101722.72;;;19.14;100.00
70370;BME280;57790;51.356;-2.906;2023-07-13T08:55:40;101720.22;;;19.13;100.00
70370;BME280;57790;51.356;-2.906;2023-07-13T08:58:41;101729.13;;;19.13;100.00
70370;BME280;57790;51.356;-2.906;2023-07-13T09:08:04;101748.31;;;19.10;100.00
70370;BME280;57790;51.356;-2.906;2023-07-13T09:11:22;101747.66;;;19.08;100.00
70370;BME280;57790;51.356;-2.906;2023-07-13T09:17:48;101749.53;;;19.08;100.00
70370;BME280;57790;51.356;-2.906;2023-07-13T09:20:54;101742.47;;;19.07;100.00
70370;BME280;57790;51.356;-2.906;2023-07-13T09:27:21;101740.44;;;19.09;100.00
70370;BME280;57790;51.356;-2.906;2023-07-13T09:30:33;101741.53;;;19.14;100.00
70370;BME280;57790;51.356;-2.906;2023-07-13T09:33:35;101747.94;;;19.13;100.00
70370;BME280;57790;51.356;-2.906;2023-07-13T09:36:36;101743.81;;;19.17;100.00
70370;BME280;57790;51.356;-2.906;2023-07-13T09:39:39;101747.78;;;19.21;100.00
70370;BME280;57790;51.356;-2.906;2023-07-13T09:42:41;101747.56;;;19.23;100.00
70370;BME280;57790;51.356;-2.906;2023-07-13T09:45:45;101741.00;;;19.25;100.00
70370;BME280;57790;51.356;-2.906;2023-07-13T09:48:46;101743.50;;;19.27;100.00
70370;BME280;57790;51.356;-2.906;2023-07-13T09:51:46;101749.31;;;19.30;100.00
70370;BME280;57790;51.356;-2.906;2023-07-13T09:54:49;101749.94;;;19.32;100.00
70370;BME280;57790;51.356;-2.906;2023-07-13T09:57:50;101753.06;;;19.36;100.00
70370;BME280;57790;51.356;-2.906;2023-07-13T10:01:02;101753.53;;;19.40;100.00
70370;BME280;57790;51.356;-2.906;2023-07-13T10:04:17;101762.25;;;19.48;100.00
70370;BME280;57790;51.356;-2.906;2023-07-13T10:07:22;101759.84;;;19.53;100.00
70370;BME280;57790;51.356;-2.906;2023-07-13T10:10:23;101767.97;;;19.60;100.00
70370;BME280;57790;51.356;-2.906;2023-07-13T10:13:35;101761.78;;;19.66;100.00
70370;BME280;57790;51.356;-2.906;2023-07-13T10:16:37;101773.00;;;19.70;100.00
70370;BME280;57790;51.356;-2.906;2023-07-13T10:19:39;101770.13;;;19.71;100.00
70370;BME280;57790;51.356;-2.906;2023-07-13T10:22:55;101783.16;;;19.74;100.00
70370;BME280;57790;51.356;-2.906;2023-07-13T10:25:59;101790.22;;;19.75;100.00
70370;BME280;57790;51.356;-2.906;2023-07-13T10:29:04;101789.78;;;19.72;100.00
70370;BME280;57790;51.356;-2.906;2023-07-13T10:32:12;101789.34;;;19.68;100.00
70370;BME280;57790;51.356;-2.906;2023-07-13T10:35:15;101787.28;;;19.70;100.00
70370;BME280;57790;51.356;-2.906;2023-07-13T10:38:21;101784.59;;;19.70;100.00
70370;BME280;57790;51.356;-2.906;2023-07-13T10:41:24;101794.91;;;19.67;100.00
70370;BME280;57790;51.356;-2.906;2023-07-13T10:44:28;101786.00;;;19.66;100.00
70370;BME280;57790;51.356;-2.906;2023-07-13T10:47:29;101790.56;;;19.66;100.00
70370;BME280;57790;51.356;-2.906;2023-07-13T10:50:42;101783.97;;;19.68;100.00
70370;BME280;57790;51.356;-2.906;2023-07-13T10:53:43;101791.66;;;19.71;100.00
70370;BME280;57790;51.356;-2.906;2023-07-13T10:56:45;101787.94;;;19.72;100.00
70370;BME280;57790;51.356;-2.906;2023-07-13T10:59:49;101782.34;;;19.74;100.00
70370;BME280;57790;51.356;-2.906;2023-07-13T11:03:14;101788.56;;;19.74;100.00
70370;BME280;57790;51.356;-2.906;2023-07-13T11:09:36;101782.16;;;19.75;100.00
70370;BME280;57790;51.356;-2.906;2023-07-13T11:12:53;101780.91;;;19.78;100.00
70370;BME280;57790;51.356;-2.906;2023-07-13T11:15:54;101773.66;;;19.78;100.00
70370;BME280;57790;51.356;-2.906;2023-07-13T11:25:31;101773.94;;;19.83;100.00
70370;BME280;57790;51.356;-2.906;2023-07-13T11:28:41;101778.69;;;19.88;100.00
70370;BME280;57790;51.356;-2.906;2023-07-13T11:31:42;101770.44;;;19.89;100.00
70370;BME280;57790;51.356;-2.906;2023-07-13T11:34:47;101770.22;;;19.91;100.00
70370;BME280;57790;51.356;-2.906;2023-07-13T11:37:47;101770.03;;;19.92;100.00
70370;BME280;57790;51.356;-2.906;2023-07-13T11:40:51;101774.44;;;20.00;100.00
70370;BME280;57790;51.356;-2.906;2023-07-13T11:43:55;101768.03;;;20.08;100.00
70370;BME280;57790;51.356;-2.906;2023-07-13T11:46:58;101777.56;;;20.10;100.00
70370;BME280;57790;51.356;-2.906;2023-07-13T11:50:04;101765.19;;;20.16;100.00
70370;BME280;57790;51.356;-2.906;2023-07-13T11:53:09;101775.94;;;20.16;100.00
70370;BME280;57790;51.356;-2.906;2023-07-13T11:56:10;101777.41;;;20.18;100.00
70370;BME280;57790;51.356;-2.906;2023-07-13T11:59:12;101778.72;;;20.29;100.00
70370;BME280;57790;51.356;-2.906;2023-07-13T12:02:36;101775.81;;;20.37;100.00
70370;BME280;57790;51.356;-2.906;2023-07-13T12:05:37;101783.91;;;20.37;100.00
70370;BME280;57790;51.356;-2.906;2023-07-13T12:08:39;101766.34;;;20.41;100.00
70370;BME280;57790;51.356;-2.906;2023-07-13T12:11:43;101766.34;;;20.41;100.00
70370;BME280;57790;51.356;-2.906;2023-07-13T12:14:44;101779.81;;;20.41;100.00
70370;BME280;57790;51.356;-2.906;2023-07-13T12:17:45;101773.00;;;20.45;100.00
70370;BME280;57790;51.356;-2.906;2023-07-13T12:20:47;101774.22;;;20.43;100.00
70370;BME280;57790;51.356;-2.906;2023-07-13T12:23:49;101775.69;;;20.45;100.00
70370;BME280;57790;51.356;-2.906;2023-07-13T12:26:52;101784.41;;;20.47;100.00
70370;BME280;57790;51.356;-2.906;2023-07-13T12:29:59;101783.97;;;20.50;100.00
70370;BME280;57790;51.356;-2.906;2023-07-13T12:36:03;101777.59;;;20.58;100.00
70370;BME280;57790;51.356;-2.906;2023-07-13T12:42:25;101782.56;;;20.55;100.00
70370;BME280;57790;51.356;-2.906;2023-07-13T12:45:28;101788.34;;;20.52;100.00
70370;BME280;57790;51.356;-2.906;2023-07-13T12:48:29;101780.06;;;20.53;100.00
70370;BME280;57790;51.356;-2.906;2023-07-13T12:51:29;101775.28;;;20.48;100.00
70370;BME280;57790;51.356;-2.906;2023-07-13T12:54:31;101781.91;;;20.53;100.00
70370;BME280;57790;51.356;-2.906;2023-07-13T12:57:39;101778.63;;;20.57;100.00
70370;BME280;57790;51.356;-2.906;2023-07-13T13:00:39;101775.94;;;20.57;100.00
70370;BME280;57790;51.356;-2.906;2023-07-13T13:03:48;101775.94;;;20.57;100.00
70370;BME280;57790;51.356;-2.906;2023-07-13T13:07:01;101778.22;;;20.60;100.00
70370;BME280;57790;51.356;-2.906;2023-07-13T13:10:11;101777.41;;;20.66;100.00
70370;BME280;57790;51.356;-2.906;2023-07-13T13:13:11;101787.59;;;20.71;100.00
70370;BME280;57790;51.356;-2.906;2023-07-13T13:19:23;101775.78;;;20.78;100.00
70370;BME280;57790;51.356;-2.906;2023-07-13T13:22:24;101774.72;;;20.79;100.00
70370;BME280;57790;51.356;-2.906;2023-07-13T13:25:25;101771.25;;;20.86;100.00
70370;BME280;57790;51.356;-2.906;2023-07-13T13:28:25;101777.88;;;20.90;100.00
70370;BME280;57790;51.356;-2.906;2023-07-13T13:31:27;101775.78;;;20.92;100.00
70370;BME280;57790;51.356;-2.906;2023-07-13T13:34:30;101776.63;;;20.92;100.00
70370;BME280;57790;51.356;-2.906;2023-07-13T13:37:31;101779.13;;;20.94;100.00
70370;BME280;57790;51.356;-2.906;2023-07-13T13:40:32;101770.44;;;20.98;100.00
70370;BME280;57790;51.356;-2.906;2023-07-13T13:43:32;101782.25;;;21.04;100.00
70370;BME280;57790;51.356;-2.906;2023-07-13T13:46:32;101780.59;;;21.03;100.00
70370;BME280;57790;51.356;-2.906;2023-07-13T13:49:33;101776.22;;;21.08;100.00
70370;BME280;57790;51.356;-2.906;2023-07-13T13:52:33;101771.69;;;21.16;100.00
70370;BME280;57790;51.356;-2.906;2023-07-13T13:55:34;101776.66;;;21.19;100.00
70370;BME280;57790;51.356;-2.906;2023-07-13T13:58:35;101768.78;;;21.17;100.00
70370;BME280;57790;51.356;-2.906;2023-07-13T14:01:36;101777.06;;;21.22;100.00
70370;BME280;57790;51.356;-2.906;2023-07-13T14:04:37;101766.47;;;21.21;100.00
70370;BME280;57790;51.356;-2.906;2023-07-13T14:07:38;101773.75;;;21.20;100.00
70370;BME280;57790;51.356;-2.906;2023-07-13T14:10:38;101770.84;;;21.22;100.00
70370;BME280;57790;51.356;-2.906;2023-07-13T14:13:43;101775.63;;;21.20;100.00
70370;BME280;57790;51.356;-2.906;2023-07-13T14:16:44;101768.75;;;21.24;100.00
70370;BME280;57790;51.356;-2.906;2023-07-13T14:19:45;101763.63;;;21.29;100.00
70370;BME280;57790;51.356;-2.906;2023-07-13T14:22:46;101769.84;;;21.29;100.00
70370;BME280;57790;51.356;-2.906;2023-07-13T14:25:47;101771.72;;;21.29;100.00
70370;BME280;57790;51.356;-2.906;2023-07-13T14:28:49;101772.13;;;21.32;100.00
70370;BME280;57790;51.356;-2.906;2023-07-13T14:31:51;101778.97;;;21.35;100.00
70370;BME280;57790;51.356;-2.906;2023-07-13T14:34:51;101786.44;;;21.39;100.00
70370;BME280;57790;51.356;-2.906;2023-07-13T14:37:52;101785.81;;;21.44;100.00
70370;BME280;57790;51.356;-2.906;2023-07-13T14:40:52;101783.13;;;21.44;100.00
70370;BME280;57790;51.356;-2.906;2023-07-13T14:43:53;101767.56;;;21.46;100.00
70370;BME280;57790;51.356;-2.906;2023-07-13T14:46:55;101779.56;;;21.50;100.00
70370;BME280;57790;51.356;-2.906;2023-07-13T14:49:56;101790.56;;;21.55;100.00
70370;BME280;57790;51.356;-2.906;2023-07-13T14:52:57;101774.19;;;21.57;100.00
70370;BME280;57790;51.356;-2.906;2023-07-13T14:55:57;101780.59;;;21.62;100.00
70370;BME280;57790;51.356;-2.906;2023-07-13T14:58:57;101781.44;;;21.63;100.00
70370;BME280;57790;51.356;-2.906;2023-07-13T15:01:58;101793.91;;;21.71;100.00
70370;BME280;57790;51.356;-2.906;2023-07-13T15:04:58;101802.41;;;21.74;100.00
70370;BME280;57790;51.356;-2.906;2023-07-13T15:08:02;101803.44;;;21.73;100.00
70370;BME280;57790;51.356;-2.906;2023-07-13T15:11:03;101793.03;;;21.77;100.00
70370;BME280;57790;51.356;-2.906;2023-07-13T15:14:05;101794.69;;;21.78;100.00
70370;BME280;57790;51.356;-2.906;2023-07-13T15:17:08;101793.84;;;21.84;100.00
70370;BME280;57790;51.356;-2.906;2023-07-13T15:20:29;101792.63;;;21.86;100.00
70370;BME280;57790;51.356;-2.906;2023-07-13T15:23:31;101784.69;;;21.91;100.00
70370;BME280;57790;51.356;-2.906;2023-07-13T15:26:32;101800.06;;;21.91;100.00
70370;BME280;57790;51.356;-2.906;2023-07-13T15:29:33;101788.84;;;21.94;100.00
70370;BME280;57790;51.356;-2.906;2023-07-13T15:32:33;101784.88;;;21.96;100.00
70370;BME280;57790;51.356;-2.906;2023-07-13T15:35:34;101780.97;;;21.92;100.00
70370;BME280;57790;51.356;-2.906;2023-07-13T15:38:35;101776.38;;;21.93;100.00
70370;BME280;57790;51.356;-2.906;2023-07-13T15:41:39;101780.94;;;21.99;100.00
70370;BME280;57790;51.356;-2.906;2023-07-13T15:44:41;101773.25;;;22.03;100.00
70370;BME280;57790;51.356;-2.906;2023-07-13T15:47:42;101777.81;;;22.02;100.00
70370;BME280;57790;51.356;-2.906;2023-07-13T15:50:54;101778.25;;;22.06;100.00
70370;BME280;57790;51.356;-2.906;2023-07-13T15:53:58;101777.38;;;22.12;100.00
70370;BME280;57790;51.356;-2.906;2023-07-13T15:57:01;101778.84;;;22.14;100.00
70370;BME280;57790;51.356;-2.906;2023-07-13T16:00:02;101768.06;;;22.14;100.00